sensor_id;sensor_type;location;lat;lon;timestamp;P1;durP1;ratioP1;P2;durP2;ratioP2
60169;SDS011;46042;49.444;6.862;2024-01-16T00:00:58;6.03;;;3.27;;
60169;SDS011;46042;49.444;6.862;2024-01-16T00:03:24;5.70;;;2.87;;
60169;SDS011;46042;49.444;6.862;2024-01-16T00:05:51;14.03;;;3.47;;
60169;SDS011;46042;49.444;6.862;2024-01-16T00:08:18;6.73;;;2.87;;
60169;SDS011;46042;49.444;6.862;2024-01-16T00:10:45;12.97;;;3.43;;
60169;SDS011;46042;49.444;6.862;2024-01-16T00:13:12;5.53;;;3.23;;
60169;SDS011;46042;49.444;6.862;2024-01-16T00:15:39;6.37;;;3.67;;
60169;SDS011;46042;49.444;6.862;2024-01-16T00:18:08;8.60;;;3.70;;
60169;SDS011;46042;49.444;6.862;2024-01-16T00:20:35;6.23;;;3.13;;
60169;SDS011;46042;49.444;6.862;2024-01-16T00:23:02;11.40;;;3.27;;
60169;SDS011;46042;49.444;6.862;2024-01-16T00:25:29;7.77;;;3.33;;
60169;SDS011;46042;49.444;6.862;2024-01-16T00:27:55;6.60;;;3.17;;
60169;SDS011;46042;49.444;6.862;2024-01-16T00:30:22;6.47;;;3.03;;
60169;SDS011;46042;49.444;6.862;2024-01-16T00:32:49;10.33;;;3.80;;
60169;SDS011;46042;49.444;6.862;2024-01-16T00:35:15;11.20;;;3.83;;
60169;SDS011;46042;49.444;6.862;2024-01-16T00:37:42;5.27;;;3.40;;
60169;SDS011;46042;49.444;6.862;2024-01-16T00:40:09;13.07;;;4.17;;
60169;SDS011;46042;49.444;6.862;2024-01-16T00:42:36;7.70;;;3.70;;
60169;SDS011;46042;49.444;6.862;2024-01-16T00:45:03;8.03;;;3.87;;
60169;SDS011;46042;49.444;6.862;2024-01-16T00:47:30;10.57;;;3.80;;
60169;SDS011;46042;49.444;6.862;2024-01-16T00:49:58;10.07;;;3.23;;
60169;SDS011;46042;49.444;6.862;2024-01-16T00:52:26;3.87;;;2.90;;
60169;SDS011;46042;49.444;6.862;2024-01-16T00:54:53;5.80;;;3.33;;
60169;SDS011;46042;49.444;6.862;2024-01-16T00:57:20;10.23;;;4.23;;
60169;SDS011;46042;49.444;6.862;2024-01-16T00:59:47;5.03;;;3.30;;
60169;SDS011;46042;49.444;6.862;2024-01-16T01:02:14;9.17;;;3.17;;
60169;SDS011;46042;49.444;6.862;2024-01-16T01:04:42;11.43;;;2.83;;
60169;SDS011;46042;49.444;6.862;2024-01-16T01:07:12;10.53;;;3.03;;
60169;SDS011;46042;49.444;6.862;2024-01-16T01:09:40;5.63;;;3.03;;
60169;SDS011;46042;49.444;6.862;2024-01-16T01:12:07;10.70;;;3.37;;
60169;SDS011;46042;49.444;6.862;2024-01-16T01:14:34;7.70;;;3.20;;
60169;SDS011;46042;49.444;6.862;2024-01-16T01:17:01;5.90;;;2.40;;
60169;SDS011;46042;49.444;6.862;2024-01-16T01:19:28;8.20;;;2.60;;
60169;SDS011;46042;49.444;6.862;2024-01-16T01:21:54;6.87;;;2.90;;
60169;SDS011;46042;49.444;6.862;2024-01-16T01:24:21;7.17;;;3.10;;
60169;SDS011;46042;49.444;6.862;2024-01-16T01:26:48;9.93;;;3.30;;
60169;SDS011;46042;49.444;6.862;2024-01-16T01:29:14;4.40;;;2.67;;
60169;SDS011;46042;49.444;6.862;2024-01-16T01:31:44;7.73;;;3.00;;
60169;SDS011;46042;49.444;6.862;2024-01-16T01:34:12;7.32;;;3.10;;
60169;SDS011;46042;49.444;6.862;2024-01-16T01:36:39;11.57;;;3.40;;
60169;SDS011;46042;49.444;6.862;2024-01-16T01:39:05;7.97;;;3.10;;
60169;SDS011;46042;49.444;6.862;2024-01-16T01:41:32;6.00;;;3.30;;
60169;SDS011;46042;49.444;6.862;2024-01-16T01:43:59;6.50;;;3.13;;
60169;SDS011;46042;49.444;6.862;2024-01-16T01:46:26;5.77;;;2.37;;
60169;SDS011;46042;49.444;6.862;2024-01-16T01:48:53;8.13;;;2.47;;
60169;SDS011;46042;49.444;6.862;2024-01-16T01:51:22;7.67;;;2.97;;
60169;SDS011;46042;49.444;6.862;2024-01-16T01:53:49;5.77;;;2.70;;
60169;SDS011;46042;49.444;6.862;2024-01-16T01:56:18;6.47;;;2.97;;
60169;SDS011;46042;49.444;6.862;2024-01-16T01:58:47;5.17;;;3.13;;
60169;SDS011;46042;49.444;6.862;2024-01-16T02:01:15;5.23;;;2.97;;
60169;SDS011;46042;49.444;6.862;2024-01-16T02:03:44;3.57;;;2.43;;
60169;SDS011;46042;49.444;6.862;2024-01-16T02:06:12;6.20;;;2.30;;
60169;SDS011;46042;49.444;6.862;2024-01-16T02:08:39;5.47;;;2.83;;
60169;SDS011;46042;49.444;6.862;2024-01-16T02:11:07;5.67;;;2.87;;
60169;SDS011;46042;49.444;6.862;2024-01-16T02:13:34;5.03;;;2.97;;
60169;SDS011;46042;49.444;6.862;2024-01-16T02:16:01;3.67;;;2.40;;
60169;SDS011;46042;49.444;6.862;2024-01-16T02:18:29;5.17;;;2.87;;
60169;SDS011;46042;49.444;6.862;2024-01-16T02:21:00;3.50;;;2.67;;
60169;SDS011;46042;49.444;6.862;2024-01-16T02:23:29;9.03;;;3.40;;
60169;SDS011;46042;49.444;6.862;2024-01-16T02:25:57;10.90;;;3.20;;
60169;SDS011;46042;49.444;6.862;2024-01-16T02:28:24;5.93;;;2.90;;
60169;SDS011;46042;49.444;6.862;2024-01-16T02:30:51;5.27;;;2.50;;
60169;SDS011;46042;49.444;6.862;2024-01-16T02:33:17;4.70;;;3.20;;
60169;SDS011;46042;49.444;6.862;2024-01-16T02:35:44;4.33;;;2.50;;
60169;SDS011;46042;49.444;6.862;2024-01-16T02:38:11;7.50;;;3.73;;
60169;SDS011;46042;49.444;6.862;2024-01-16T02:40:38;5.97;;;2.70;;
60169;SDS011;46042;49.444;6.862;2024-01-16T02:43:05;4.20;;;2.80;;
60169;SDS011;46042;49.444;6.862;2024-01-16T02:45:32;7.73;;;2.87;;
60169;SDS011;46042;49.444;6.862;2024-01-16T02:47:58;5.67;;;2.77;;
60169;SDS011;46042;49.444;6.862;2024-01-16T02:50:26;7.53;;;2.57;;
60169;SDS011;46042;49.444;6.862;2024-01-16T02:52:52;9.23;;;3.20;;
60169;SDS011;46042;49.444;6.862;2024-01-16T02:55:19;15.87;;;4.10;;
60169;SDS011;46042;49.444;6.862;2024-01-16T02:57:46;4.37;;;2.87;;
60169;SDS011;46042;49.444;6.862;2024-01-16T03:00:13;5.23;;;2.87;;
60169;SDS011;46042;49.444;6.862;2024-01-16T03:02:40;7.60;;;3.30;;
60169;SDS011;46042;49.444;6.862;2024-01-16T03:05:07;4.83;;;2.87;;
60169;SDS011;46042;49.444;6.862;2024-01-16T03:07:34;6.40;;;3.33;;
60169;SDS011;46042;49.444;6.862;2024-01-16T03:10:01;7.33;;;2.53;;
60169;SDS011;46042;49.444;6.862;2024-01-16T03:12:27;6.53;;;2.67;;
60169;SDS011;46042;49.444;6.862;2024-01-16T03:14:54;12.20;;;3.87;;
60169;SDS011;46042;49.444;6.862;2024-01-16T03:17:22;4.87;;;3.33;;
60169;SDS011;46042;49.444;6.862;2024-01-16T03:19:49;8.20;;;3.27;;
60169;SDS011;46042;49.444;6.862;2024-01-16T03:22:15;6.77;;;3.23;;
60169;SDS011;46042;49.444;6.862;2024-01-16T03:24:42;4.90;;;3.07;;
60169;SDS011;46042;49.444;6.862;2024-01-16T03:27:09;7.97;;;3.27;;
60169;SDS011;46042;49.444;6.862;2024-01-16T03:29:35;8.63;;;4.13;;
60169;SDS011;46042;49.444;6.862;2024-01-16T03:32:02;9.13;;;3.97;;
60169;SDS011;46042;49.444;6.862;2024-01-16T03:34:30;7.03;;;3.77;;
60169;SDS011;46042;49.444;6.862;2024-01-16T03:36:57;9.93;;;3.30;;
60169;SDS011;46042;49.444;6.862;2024-01-16T03:39:24;5.37;;;2.87;;
60169;SDS011;46042;49.444;6.862;2024-01-16T03:41:51;6.13;;;3.37;;
60169;SDS011;46042;49.444;6.862;2024-01-16T03:44:18;6.73;;;3.33;;
60169;SDS011;46042;49.444;6.862;2024-01-16T03:46:45;6.80;;;2.87;;
60169;SDS011;46042;49.444;6.862;2024-01-16T03:49:12;8.63;;;3.17;;
60169;SDS011;46042;49.444;6.862;2024-01-16T03:51:39;4.60;;;2.93;;
60169;SDS011;46042;49.444;6.862;2024-01-16T03:54:09;10.13;;;2.97;;
60169;SDS011;46042;49.444;6.862;2024-01-16T03:56:35;4.80;;;2.40;;
60169;SDS011;46042;49.444;6.862;2024-01-16T03:59:02;7.53;;;3.03;;
60169;SDS011;46042;49.444;6.862;2024-01-16T04:01:33;4.40;;;2.80;;
60169;SDS011;46042;49.444;6.862;2024-01-16T04:04:03;4.13;;;2.57;;
60169;SDS011;46042;49.444;6.862;2024-01-16T04:06:33;10.35;;;2.95;;
60169;SDS011;46042;49.444;6.862;2024-01-16T04:09:00;8.50;;;4.60;;
60169;SDS011;46042;49.444;6.862;2024-01-16T04:11:27;7.90;;;3.83;;
60169;SDS011;46042;49.444;6.862;2024-01-16T04:13:54;8.63;;;4.23;;
60169;SDS011;46042;49.444;6.862;2024-01-16T04:16:22;12.60;;;4.17;;
60169;SDS011;46042;49.444;6.862;2024-01-16T04:18:48;9.37;;;3.33;;
60169;SDS011;46042;49.444;6.862;2024-01-16T04:21:15;10.13;;;3.80;;
60169;SDS011;46042;49.444;6.862;2024-01-16T04:23:46;15.23;;;3.45;;
60169;SDS011;46042;49.444;6.862;2024-01-16T04:26:13;7.37;;;3.10;;
60169;SDS011;46042;49.444;6.862;2024-01-16T04:28:39;9.07;;;3.53;;
60169;SDS011;46042;49.444;6.862;2024-01-16T04:31:06;10.27;;;3.73;;
60169;SDS011;46042;49.444;6.862;2024-01-16T04:33:33;8.33;;;2.93;;
60169;SDS011;46042;49.444;6.862;2024-01-16T04:36:00;9.87;;;3.70;;
60169;SDS011;46042;49.444;6.862;2024-01-16T04:38:27;10.03;;;3.37;;
60169;SDS011;46042;49.444;6.862;2024-01-16T04:40:54;7.20;;;4.07;;
60169;SDS011;46042;49.444;6.862;2024-01-16T04:43:20;10.10;;;3.57;;
60169;SDS011;46042;49.444;6.862;2024-01-16T04:45:47;6.70;;;2.83;;
60169;SDS011;46042;49.444;6.862;2024-01-16T04:48:14;5.03;;;2.83;;
60169;SDS011;46042;49.444;6.862;2024-01-16T04:50:40;5.90;;;3.20;;
60169;SDS011;46042;49.444;6.862;2024-01-16T04:53:07;10.87;;;4.03;;
60169;SDS011;46042;49.444;6.862;2024-01-16T04:55:34;11.00;;;4.50;;
60169;SDS011;46042;49.444;6.862;2024-01-16T04:58:01;8.33;;;4.63;;
60169;SDS011;46042;49.444;6.862;2024-01-16T05:00:28;16.07;;;4.23;;
60169;SDS011;46042;49.444;6.862;2024-01-16T05:02:54;5.30;;;3.03;;
60169;SDS011;46042;49.444;6.862;2024-01-16T05:05:21;7.83;;;2.67;;
60169;SDS011;46042;49.444;6.862;2024-01-16T05:07:49;11.60;;;3.70;;
60169;SDS011;46042;49.444;6.862;2024-01-16T05:10:17;6.80;;;3.57;;
60169;SDS011;46042;49.444;6.862;2024-01-16T05:12:44;6.63;;;3.77;;
60169;SDS011;46042;49.444;6.862;2024-01-16T05:15:10;6.00;;;2.83;;
60169;SDS011;46042;49.444;6.862;2024-01-16T05:17:38;10.70;;;3.03;;
60169;SDS011;46042;49.444;6.862;2024-01-16T05:20:05;7.70;;;4.03;;
60169;SDS011;46042;49.444;6.862;2024-01-16T05:22:32;13.07;;;5.37;;
60169;SDS011;46042;49.444;6.862;2024-01-16T05:24:59;10.13;;;4.80;;
60169;SDS011;46042;49.444;6.862;2024-01-16T05:27:27;10.93;;;5.63;;
60169;SDS011;46042;49.444;6.862;2024-01-16T05:29:54;8.83;;;3.57;;
60169;SDS011;46042;49.444;6.862;2024-01-16T05:32:21;6.07;;;2.97;;
60169;SDS011;46042;49.444;6.862;2024-01-16T05:34:48;10.17;;;4.20;;
60169;SDS011;46042;49.444;6.862;2024-01-16T05:37:14;7.13;;;4.03;;
60169;SDS011;46042;49.444;6.862;2024-01-16T05:39:41;6.87;;;3.10;;
60169;SDS011;46042;49.444;6.862;2024-01-16T05:42:08;7.20;;;3.43;;
60169;SDS011;46042;49.444;6.862;2024-01-16T05:44:35;5.50;;;3.03;;
60169;SDS011;46042;49.444;6.862;2024-01-16T05:47:02;14.20;;;3.37;;
60169;SDS011;46042;49.444;6.862;2024-01-16T05:49:28;5.10;;;3.03;;
60169;SDS011;46042;49.444;6.862;2024-01-16T05:51:55;6.37;;;3.73;;
60169;SDS011;46042;49.444;6.862;2024-01-16T05:54:22;8.23;;;3.77;;
60169;SDS011;46042;49.444;6.862;2024-01-16T05:56:49;7.70;;;2.90;;
60169;SDS011;46042;49.444;6.862;2024-01-16T05:59:16;10.87;;;3.37;;
60169;SDS011;46042;49.444;6.862;2024-01-16T06:01:43;4.03;;;3.17;;
60169;SDS011;46042;49.444;6.862;2024-01-16T06:04:09;8.10;;;3.23;;
60169;SDS011;46042;49.444;6.862;2024-01-16T06:06:39;6.60;;;3.40;;
60169;SDS011;46042;49.444;6.862;2024-01-16T06:09:11;10.57;;;3.77;;
60169;SDS011;46042;49.444;6.862;2024-01-16T06:11:40;6.57;;;3.60;;
60169;SDS011;46042;49.444;6.862;2024-01-16T06:14:07;12.17;;;4.23;;
60169;SDS011;46042;49.444;6.862;2024-01-16T06:16:34;4.50;;;2.70;;
60169;SDS011;46042;49.444;6.862;2024-01-16T06:19:01;4.33;;;2.50;;
60169;SDS011;46042;49.444;6.862;2024-01-16T06:21:28;2.90;;;2.13;;
60169;SDS011;46042;49.444;6.862;2024-01-16T06:23:55;11.47;;;4.40;;
60169;SDS011;46042;49.444;6.862;2024-01-16T06:26:22;31.10;;;10.63;;
60169;SDS011;46042;49.444;6.862;2024-01-16T06:28:49;66.27;;;24.63;;
60169;SDS011;46042;49.444;6.862;2024-01-16T06:31:16;22.67;;;8.07;;
60169;SDS011;46042;49.444;6.862;2024-01-16T06:33:43;35.53;;;10.40;;
60169;SDS011;46042;49.444;6.862;2024-01-16T06:36:10;20.63;;;7.43;;
60169;SDS011;46042;49.444;6.862;2024-01-16T06:38:38;17.53;;;4.77;;
60169;SDS011;46042;49.444;6.862;2024-01-16T06:41:06;4.87;;;3.10;;
60169;SDS011;46042;49.444;6.862;2024-01-16T06:43:33;6.87;;;3.70;;
60169;SDS011;46042;49.444;6.862;2024-01-16T06:46:00;11.00;;;3.30;;
60169;SDS011;46042;49.444;6.862;2024-01-16T06:48:26;6.57;;;3.53;;
60169;SDS011;46042;49.444;6.862;2024-01-16T06:50:54;5.70;;;2.73;;
60169;SDS011;46042;49.444;6.862;2024-01-16T06:53:20;5.50;;;2.63;;
60169;SDS011;46042;49.444;6.862;2024-01-16T06:55:47;4.87;;;2.57;;
60169;SDS011;46042;49.444;6.862;2024-01-16T06:58:15;5.40;;;2.57;;
60169;SDS011;46042;49.444;6.862;2024-01-16T07:00:41;7.20;;;3.47;;
60169;SDS011;46042;49.444;6.862;2024-01-16T07:03:08;10.07;;;3.03;;
60169;SDS011;46042;49.444;6.862;2024-01-16T07:05:35;3.83;;;2.37;;
60169;SDS011;46042;49.444;6.862;2024-01-16T07:08:02;8.30;;;3.87;;
60169;SDS011;46042;49.444;6.862;2024-01-16T07:10:29;12.10;;;3.37;;
60169;SDS011;46042;49.444;6.862;2024-01-16T07:12:55;5.20;;;3.33;;
60169;SDS011;46042;49.444;6.862;2024-01-16T07:15:22;11.40;;;3.37;;
60169;SDS011;46042;49.444;6.862;2024-01-16T07:17:49;4.27;;;2.83;;
60169;SDS011;46042;49.444;6.862;2024-01-16T07:20:16;7.70;;;2.70;;
60169;SDS011;46042;49.444;6.862;2024-01-16T07:22:43;4.70;;;2.70;;
60169;SDS011;46042;49.444;6.862;2024-01-16T07:25:10;7.33;;;2.97;;
60169;SDS011;46042;49.444;6.862;2024-01-16T07:27:36;8.17;;;3.00;;
60169;SDS011;46042;49.444;6.862;2024-01-16T07:30:06;10.20;;;3.10;;
60169;SDS011;46042;49.444;6.862;2024-01-16T07:32:33;4.80;;;3.23;;
60169;SDS011;46042;49.444;6.862;2024-01-16T07:35:01;7.13;;;3.53;;
60169;SDS011;46042;49.444;6.862;2024-01-16T07:37:29;14.57;;;5.03;;
60169;SDS011;46042;49.444;6.862;2024-01-16T07:39:56;17.27;;;5.77;;
60169;SDS011;46042;49.444;6.862;2024-01-16T07:42:23;13.70;;;6.47;;
60169;SDS011;46042;49.444;6.862;2024-01-16T07:44:49;11.13;;;5.70;;
60169;SDS011;46042;49.444;6.862;2024-01-16T07:47:17;11.07;;;6.30;;
60169;SDS011;46042;49.444;6.862;2024-01-16T07:49:44;18.17;;;5.73;;
60169;SDS011;46042;49.444;6.862;2024-01-16T07:52:11;11.87;;;6.03;;
60169;SDS011;46042;49.444;6.862;2024-01-16T07:54:38;13.90;;;5.30;;
60169;SDS011;46042;49.444;6.862;2024-01-16T07:57:05;10.10;;;5.73;;
60169;SDS011;46042;49.444;6.862;2024-01-16T07:59:32;13.83;;;6.23;;
60169;SDS011;46042;49.444;6.862;2024-01-16T08:02:00;9.30;;;6.03;;
60169;SDS011;46042;49.444;6.862;2024-01-16T08:04:27;9.60;;;4.73;;
60169;SDS011;46042;49.444;6.862;2024-01-16T08:06:57;10.47;;;6.00;;
60169;SDS011;46042;49.444;6.862;2024-01-16T08:09:24;8.70;;;4.63;;
60169;SDS011;46042;49.444;6.862;2024-01-16T08:11:51;13.40;;;5.67;;
60169;SDS011;46042;49.444;6.862;2024-01-16T08:14:18;12.43;;;5.20;;
60169;SDS011;46042;49.444;6.862;2024-01-16T08:16:45;12.33;;;5.70;;
60169;SDS011;46042;49.444;6.862;2024-01-16T08:19:12;14.53;;;5.97;;
60169;SDS011;46042;49.444;6.862;2024-01-16T08:21:39;9.33;;;5.30;;
60169;SDS011;46042;49.444;6.862;2024-01-16T08:24:06;16.10;;;5.60;;
60169;SDS011;46042;49.444;6.862;2024-01-16T08:26:33;10.20;;;6.60;;
60169;SDS011;46042;49.444;6.862;2024-01-16T08:28:59;11.50;;;5.67;;
60169;SDS011;46042;49.444;6.862;2024-01-16T08:31:26;21.33;;;9.50;;
60169;SDS011;46042;49.444;6.862;2024-01-16T08:33:53;6.40;;;3.70;;
60169;SDS011;46042;49.444;6.862;2024-01-16T08:36:23;8.97;;;5.20;;
60169;SDS011;46042;49.444;6.862;2024-01-16T08:38:50;17.40;;;4.77;;
60169;SDS011;46042;49.444;6.862;2024-01-16T08:41:17;5.23;;;3.17;;
60169;SDS011;46042;49.444;6.862;2024-01-16T08:43:43;7.00;;;3.10;;
60169;SDS011;46042;49.444;6.862;2024-01-16T08:46:10;6.03;;;3.90;;
60169;SDS011;46042;49.444;6.862;2024-01-16T08:48:37;5.40;;;3.40;;
60169;SDS011;46042;49.444;6.862;2024-01-16T08:51:07;8.43;;;4.47;;
60169;SDS011;46042;49.444;6.862;2024-01-16T08:53:38;9.30;;;5.93;;
60169;SDS011;46042;49.444;6.862;2024-01-16T08:56:05;10.53;;;6.40;;
60169;SDS011;46042;49.444;6.862;2024-01-16T08:58:33;13.43;;;6.77;;
60169;SDS011;46042;49.444;6.862;2024-01-16T09:01:04;14.83;;;7.83;;
60169;SDS011;46042;49.444;6.862;2024-01-16T09:03:32;13.33;;;6.70;;
60169;SDS011;46042;49.444;6.862;2024-01-16T09:06:00;10.30;;;5.63;;
60169;SDS011;46042;49.444;6.862;2024-01-16T09:08:28;10.70;;;4.17;;
60169;SDS011;46042;49.444;6.862;2024-01-16T09:10:55;7.63;;;3.33;;
60169;SDS011;46042;49.444;6.862;2024-01-16T09:13:22;11.93;;;5.97;;
60169;SDS011;46042;49.444;6.862;2024-01-16T09:15:49;12.37;;;7.00;;
60169;SDS011;46042;49.444;6.862;2024-01-16T09:18:16;12.23;;;6.83;;
60169;SDS011;46042;49.444;6.862;2024-01-16T09:20:43;14.17;;;7.43;;
60169;SDS011;46042;49.444;6.862;2024-01-16T09:23:10;17.53;;;7.13;;
60169;SDS011;46042;49.444;6.862;2024-01-16T09:25:37;10.90;;;6.40;;
60169;SDS011;46042;49.444;6.862;2024-01-16T09:28:04;16.17;;;7.90;;
60169;SDS011;46042;49.444;6.862;2024-01-16T09:30:30;17.90;;;9.10;;
60169;SDS011;46042;49.444;6.862;2024-01-16T09:32:57;19.70;;;9.20;;
60169;SDS011;46042;49.444;6.862;2024-01-16T09:35:24;22.13;;;10.23;;
60169;SDS011;46042;49.444;6.862;2024-01-16T09:37:51;15.23;;;8.90;;
60169;SDS011;46042;49.444;6.862;2024-01-16T09:40:17;25.43;;;9.53;;
60169;SDS011;46042;49.444;6.862;2024-01-16T09:42:44;13.37;;;8.57;;
60169;SDS011;46042;49.444;6.862;2024-01-16T09:45:12;16.03;;;7.60;;
60169;SDS011;46042;49.444;6.862;2024-01-16T09:47:45;12.70;;;6.97;;
60169;SDS011;46042;49.444;6.862;2024-01-16T09:50:18;13.30;;;8.37;;
60169;SDS011;46042;49.444;6.862;2024-01-16T09:52:45;17.07;;;7.50;;
60169;SDS011;46042;49.444;6.862;2024-01-16T09:55:13;13.73;;;7.10;;
60169;SDS011;46042;49.444;6.862;2024-01-16T09:57:41;25.80;;;7.43;;
60169;SDS011;46042;49.444;6.862;2024-01-16T10:00:09;11.10;;;7.00;;
60169;SDS011;46042;49.444;6.862;2024-01-16T10:02:39;16.45;;;7.18;;
60169;SDS011;46042;49.444;6.862;2024-01-16T10:05:07;17.67;;;8.40;;
60169;SDS011;46042;49.444;6.862;2024-01-16T10:07:37;15.20;;;7.60;;
60169;SDS011;46042;49.444;6.862;2024-01-16T10:10:04;20.50;;;7.57;;
60169;SDS011;46042;49.444;6.862;2024-01-16T10:12:32;12.93;;;7.37;;
60169;SDS011;46042;49.444;6.862;2024-01-16T10:15:01;12.77;;;6.73;;
60169;SDS011;46042;49.444;6.862;2024-01-16T10:17:50;22.27;;;8.18;;
60169;SDS011;46042;49.444;6.862;2024-01-16T10:20:17;13.10;;;7.43;;
60169;SDS011;46042;49.444;6.862;2024-01-16T10:22:58;17.57;;;8.00;;
60169;SDS011;46042;49.444;6.862;2024-01-16T10:25:25;19.63;;;8.87;;
60169;SDS011;46042;49.444;6.862;2024-01-16T10:28:02;18.20;;;6.33;;
60169;SDS011;46042;49.444;6.862;2024-01-16T10:30:31;22.63;;;9.10;;
60169;SDS011;46042;49.444;6.862;2024-01-16T10:33:05;12.33;;;6.53;;
60169;SDS011;46042;49.444;6.862;2024-01-16T10:35:40;14.80;;;5.70;;
60169;SDS011;46042;49.444;6.862;2024-01-16T10:38:06;15.60;;;5.57;;
60169;SDS011;46042;49.444;6.862;2024-01-16T10:40:33;9.67;;;5.17;;
60169;SDS011;46042;49.444;6.862;2024-01-16T10:43:02;17.83;;;5.83;;
60169;SDS011;46042;49.444;6.862;2024-01-16T10:45:34;10.05;;;5.78;;
60169;SDS011;46042;49.444;6.862;2024-01-16T10:48:05;16.60;;;5.43;;
60169;SDS011;46042;49.444;6.862;2024-01-16T10:50:34;9.63;;;5.73;;
60169;SDS011;46042;49.444;6.862;2024-01-16T10:53:05;15.90;;;5.28;;
60169;SDS011;46042;49.444;6.862;2024-01-16T10:55:36;12.23;;;5.50;;
60169;SDS011;46042;49.444;6.862;2024-01-16T10:58:09;7.27;;;4.67;;
60169;SDS011;46042;49.444;6.862;2024-01-16T11:00:39;16.00;;;5.73;;
60169;SDS011;46042;49.444;6.862;2024-01-16T11:03:11;12.98;;;5.57;;
60169;SDS011;46042;49.444;6.862;2024-01-16T11:05:46;12.00;;;6.70;;
60169;SDS011;46042;49.444;6.862;2024-01-16T11:08:14;13.67;;;6.00;;
60169;SDS011;46042;49.444;6.862;2024-01-16T11:10:43;23.13;;;7.32;;
60169;SDS011;46042;49.444;6.862;2024-01-16T11:13:11;14.77;;;5.70;;
60169;SDS011;46042;49.444;6.862;2024-01-16T11:15:39;15.15;;;6.05;;
60169;SDS011;46042;49.444;6.862;2024-01-16T11:18:09;18.83;;;6.15;;
60169;SDS011;46042;49.444;6.862;2024-01-16T11:20:38;7.95;;;5.25;;
60169;SDS011;46042;49.444;6.862;2024-01-16T11:23:12;14.30;;;4.63;;
60169;SDS011;46042;49.444;6.862;2024-01-16T11:25:40;10.48;;;5.20;;
60169;SDS011;46042;49.444;6.862;2024-01-16T11:28:07;11.20;;;5.23;;
60169;SDS011;46042;49.444;6.862;2024-01-16T11:30:34;10.60;;;4.77;;
60169;SDS011;46042;49.444;6.862;2024-01-16T11:33:02;9.10;;;4.90;;
60169;SDS011;46042;49.444;6.862;2024-01-16T11:35:31;9.57;;;5.33;;
60169;SDS011;46042;49.444;6.862;2024-01-16T11:40:35;12.90;;;5.17;;
60169;SDS011;46042;49.444;6.862;2024-01-16T11:46:01;9.40;;;4.47;;
60169;SDS011;46042;49.444;6.862;2024-01-16T11:48:31;9.20;;;4.93;;
60169;SDS011;46042;49.444;6.862;2024-01-16T11:50:58;15.80;;;6.43;;
60169;SDS011;46042;49.444;6.862;2024-01-16T11:56:06;9.57;;;4.63;;
60169;SDS011;46042;49.444;6.862;2024-01-16T12:01:14;12.60;;;4.53;;
60169;SDS011;46042;49.444;6.862;2024-01-16T12:03:44;14.03;;;7.53;;
60169;SDS011;46042;49.444;6.862;2024-01-16T12:06:10;7.70;;;4.77;;
60169;SDS011;46042;49.444;6.862;2024-01-16T12:08:37;10.67;;;5.13;;
60169;SDS011;46042;49.444;6.862;2024-01-16T12:11:04;12.27;;;6.07;;
60169;SDS011;46042;49.444;6.862;2024-01-16T12:13:31;17.73;;;6.83;;
60169;SDS011;46042;49.444;6.862;2024-01-16T12:16:03;16.30;;;7.97;;
60169;SDS011;46042;49.444;6.862;2024-01-16T12:18:32;13.07;;;5.20;;
60169;SDS011;46042;49.444;6.862;2024-01-16T12:21:10;14.68;;;5.22;;
60169;SDS011;46042;49.444;6.862;2024-01-16T12:23:40;16.55;;;6.28;;
60169;SDS011;46042;49.444;6.862;2024-01-16T12:26:23;17.77;;;7.78;;
60169;SDS011;46042;49.444;6.862;2024-01-16T12:28:56;18.45;;;5.95;;
60169;SDS011;46042;49.444;6.862;2024-01-16T12:31:35;11.18;;;5.65;;
60169;SDS011;46042;49.444;6.862;2024-01-16T12:34:07;10.90;;;6.05;;
60169;SDS011;46042;49.444;6.862;2024-01-16T12:36:38;9.95;;;5.88;;
60169;SDS011;46042;49.444;6.862;2024-01-16T12:39:09;14.30;;;6.03;;
60169;SDS011;46042;49.444;6.862;2024-01-16T12:45:03;10.45;;;4.88;;
60169;SDS011;46042;49.444;6.862;2024-01-16T12:55:24;12.02;;;4.30;;
60169;SDS011;46042;49.444;6.862;2024-01-16T13:01:23;15.50;;;4.35;;
60169;SDS011;46042;49.444;6.862;2024-01-16T13:03:54;11.43;;;4.40;;
60169;SDS011;46042;49.444;6.862;2024-01-16T13:06:35;6.45;;;3.38;;
60169;SDS011;46042;49.444;6.862;2024-01-16T13:09:07;9.18;;;4.30;;
60169;SDS011;46042;49.444;6.862;2024-01-16T13:14:25;9.52;;;4.03;;
60169;SDS011;46042;49.444;6.862;2024-01-16T13:16:52;7.90;;;3.28;;
60169;SDS011;46042;49.444;6.862;2024-01-16T13:19:23;5.82;;;3.53;;
60169;SDS011;46042;49.444;6.862;2024-01-16T13:21:54;20.85;;;6.38;;
60169;SDS011;46042;49.444;6.862;2024-01-16T13:24:47;17.65;;;5.63;;
60169;SDS011;46042;49.444;6.862;2024-01-16T13:28:00;14.88;;;4.65;;
60169;SDS011;46042;49.444;6.862;2024-01-16T13:30:54;13.13;;;4.95;;
60169;SDS011;46042;49.444;6.862;2024-01-16T13:33:25;18.73;;;7.82;;
60169;SDS011;46042;49.444;6.862;2024-01-16T13:36:26;7.88;;;3.88;;
60169;SDS011;46042;49.444;6.862;2024-01-16T13:39:41;7.75;;;4.13;;
60169;SDS011;46042;49.444;6.862;2024-01-16T13:42:11;8.15;;;4.32;;
60169;SDS011;46042;49.444;6.862;2024-01-16T13:45:16;12.43;;;5.63;;
60169;SDS011;46042;49.444;6.862;2024-01-16T13:48:02;11.27;;;4.97;;
60169;SDS011;46042;49.444;6.862;2024-01-16T13:50:41;14.27;;;5.50;;
60169;SDS011;46042;49.444;6.862;2024-01-16T13:53:26;7.82;;;4.03;;
60169;SDS011;46042;49.444;6.862;2024-01-16T13:56:11;8.05;;;4.15;;
60169;SDS011;46042;49.444;6.862;2024-01-16T13:59:11;8.20;;;3.50;;
60169;SDS011;46042;49.444;6.862;2024-01-16T14:02:47;15.32;;;5.68;;
60169;SDS011;46042;49.444;6.862;2024-01-16T14:05:36;11.65;;;4.68;;
60169;SDS011;46042;49.444;6.862;2024-01-16T14:08:09;8.85;;;3.58;;
60169;SDS011;46042;49.444;6.862;2024-01-16T14:10:46;9.30;;;3.92;;
60169;SDS011;46042;49.444;6.862;2024-01-16T14:13:27;8.65;;;3.58;;
60169;SDS011;46042;49.444;6.862;2024-01-16T14:16:01;9.30;;;4.38;;
60169;SDS011;46042;49.444;6.862;2024-01-16T14:18:57;9.93;;;3.90;;
60169;SDS011;46042;49.444;6.862;2024-01-16T14:21:33;6.53;;;3.83;;
60169;SDS011;46042;49.444;6.862;2024-01-16T14:24:18;11.75;;;4.68;;
60169;SDS011;46042;49.444;6.862;2024-01-16T14:27:06;8.43;;;3.85;;
60169;SDS011;46042;49.444;6.862;2024-01-16T14:29:36;8.68;;;4.05;;
60169;SDS011;46042;49.444;6.862;2024-01-16T14:32:04;6.53;;;3.65;;
60169;SDS011;46042;49.444;6.862;2024-01-16T14:34:41;7.65;;;3.75;;
60169;SDS011;46042;49.444;6.862;2024-01-16T14:37:18;10.02;;;4.47;;
60169;SDS011;46042;49.444;6.862;2024-01-16T14:39:54;9.25;;;4.30;;
60169;SDS011;46042;49.444;6.862;2024-01-16T14:42:49;14.95;;;4.40;;
60169;SDS011;46042;49.444;6.862;2024-01-16T14:45:39;7.78;;;3.83;;
60169;SDS011;46042;49.444;6.862;2024-01-16T14:48:09;10.85;;;4.35;;
60169;SDS011;46042;49.444;6.862;2024-01-16T14:51:00;12.50;;;3.92;;
60169;SDS011;46042;49.444;6.862;2024-01-16T14:54:01;8.45;;;3.38;;
60169;SDS011;46042;49.444;6.862;2024-01-16T14:56:42;8.95;;;4.60;;
60169;SDS011;46042;49.444;6.862;2024-01-16T14:59:09;8.73;;;4.40;;
60169;SDS011;46042;49.444;6.862;2024-01-16T15:02:03;8.90;;;3.97;;
60169;SDS011;46042;49.444;6.862;2024-01-16T15:07:51;9.40;;;4.03;;
60169;SDS011;46042;49.444;6.862;2024-01-16T15:10:34;30.58;;;10.38;;
60169;SDS011;46042;49.444;6.862;2024-01-16T15:13:18;20.63;;;6.68;;
60169;SDS011;46042;49.444;6.862;2024-01-16T15:15:52;8.13;;;4.30;;
60169;SDS011;46042;49.444;6.862;2024-01-16T15:18:22;14.00;;;5.13;;
60169;SDS011;46042;49.444;6.862;2024-01-16T15:20:55;12.77;;;5.70;;
60169;SDS011;46042;49.444;6.862;2024-01-16T15:23:22;13.35;;;5.88;;
60169;SDS011;46042;49.444;6.862;2024-01-16T15:25:51;15.70;;;4.97;;
60169;SDS011;46042;49.444;6.862;2024-01-16T15:28:19;11.70;;;5.00;;